createdAt,value
2018-12-21T18:08:25.006Z,0.60
2018-12-21T18:10:52.802Z,0.60
2018-12-21T18:13:20.412Z,0.60
2018-12-21T18:15:48.061Z,0.50
2018-12-21T18:18:15.644Z,0.60
2018-12-21T18:20:43.714Z,0.57
2018-12-21T18:23:12.265Z,0.60
2018-12-21T18:25:40.258Z,0.50
2018-12-21T18:28:11.009Z,0.60
2018-12-21T18:30:41.614Z,0.70
2018-12-21T18:33:11.114Z,0.60
2018-12-21T18:35:39.024Z,0.60
2018-12-21T18:38:09.062Z,0.60
2018-12-21T18:40:36.809Z,0.68
2018-12-21T18:43:05.256Z,0.60
2018-12-21T18:45:33.133Z,0.60
2018-12-21T18:48:00.831Z,0.50
2018-12-21T18:50:28.983Z,0.50
2018-12-21T18:52:56.620Z,0.60
2018-12-21T18:55:24.247Z,0.50
2018-12-21T18:57:52.190Z,0.60
2018-12-21T19:00:19.840Z,0.53
2018-12-21T19:02:47.598Z,0.45
2018-12-21T19:05:15.688Z,0.60
2018-12-21T19:07:43.286Z,0.60
2018-12-21T19:10:10.944Z,0.50
2018-12-21T19:12:38.830Z,0.50
2018-12-21T19:15:07.769Z,0.50
2018-12-21T19:17:35.462Z,0.60
2018-12-21T19:20:03.361Z,0.70
2018-12-21T19:22:31.075Z,0.78
2018-12-21T19:24:58.648Z,1.05
2018-12-21T19:27:26.873Z,0.90
2018-12-21T19:29:55.124Z,0.90
2018-12-21T19:32:22.764Z,0.90
2018-12-21T19:34:50.423Z,0.70
2018-12-21T19:37:18.119Z,0.70
2018-12-21T19:39:45.706Z,0.60
2018-12-21T19:42:13.461Z,0.70
2018-12-21T19:44:42.417Z,0.68
2018-12-21T19:47:11.283Z,0.70
2018-12-21T19:49:39.007Z,0.70
2018-12-21T19:52:06.641Z,0.70
2018-12-21T19:54:34.580Z,0.60
2018-12-21T19:57:04.924Z,0.70
2018-12-21T19:59:32.698Z,0.57
2018-12-21T20:02:01.168Z,0.60
2018-12-21T20:04:28.974Z,0.70
2018-12-21T20:06:56.748Z,0.60
2018-12-21T20:09:24.399Z,0.70
2018-12-21T20:11:52.057Z,0.75
2018-12-21T20:14:19.883Z,0.60
2018-12-21T20:16:47.671Z,0.60
2018-12-21T20:19:15.387Z,0.60
2018-12-21T20:21:43.266Z,0.50
2018-12-21T20:24:11.553Z,0.70
2018-12-21T20:26:40.451Z,0.60
2018-12-21T20:29:08.623Z,0.70
2018-12-21T20:31:36.298Z,0.60
2018-12-21T20:34:04.801Z,0.70
